sensor_id;sensor_type;location;lat;lon;timestamp;pressure;altitude;pressure_sealevel;temperature;humidity
28428;BME280;15662;49.128;8.520;2023-07-08T00:00:45;100354.63;;;28.03;27.86
28428;BME280;15662;49.128;8.520;2023-07-08T00:03:17;100354.47;;;28.05;28.00
28428;BME280;15662;49.128;8.520;2023-07-08T00:05:53;100357.03;;;28.06;27.78
28428;BME280;15662;49.128;8.520;2023-07-08T00:08:23;100355.59;;;28.02;27.76
28428;BME280;15662;49.128;8.520;2023-07-08T00:10:51;100348.44;;;28.01;28.02
28428;BME280;15662;49.128;8.520;2023-07-08T00:13:19;100343.00;;;28.01;27.88
28428;BME280;15662;49.128;8.520;2023-07-08T00:15:47;100338.88;;;27.97;27.88
28428;BME280;15662;49.128;8.520;2023-07-08T00:18:17;100340.44;;;27.99;27.73
28428;BME280;15662;49.128;8.520;2023-07-08T00:20:50;100341.75;;;27.95;27.83
28428;BME280;15662;49.128;8.520;2023-07-08T00:23:18;100347.75;;;27.99;27.91
28428;BME280;15662;49.128;8.520;2023-07-08T00:25:49;100351.63;;;27.96;27.86
28428;BME280;15662;49.128;8.520;2023-07-08T00:28:20;100342.44;;;27.97;27.84
28428;BME280;15662;49.128;8.520;2023-07-08T00:30:48;100337.09;;;27.68;28.01
28428;BME280;15662;49.128;8.520;2023-07-08T00:33:16;100349.13;;;27.85;28.04
28428;BME280;15662;49.128;8.520;2023-07-08T00:35:45;100353.38;;;27.88;27.82
28428;BME280;15662;49.128;8.520;2023-07-08T00:38:25;100350.53;;;27.89;27.80
28428;BME280;15662;49.128;8.520;2023-07-08T00:51:39;100369.75;;;27.41;30.48
28428;BME280;15662;49.128;8.520;2023-07-08T00:54:18;100374.25;;;27.22;30.96
28428;BME280;15662;49.128;8.520;2023-07-08T00:56:58;100370.81;;;27.01;31.03
28428;BME280;15662;49.128;8.520;2023-07-08T00:59:38;100363.25;;;26.85;31.32
28428;BME280;15662;49.128;8.520;2023-07-08T01:02:10;100371.53;;;26.74;31.18
28428;BME280;15662;49.128;8.520;2023-07-08T01:04:55;100370.13;;;26.70;31.20
28428;BME280;15662;49.128;8.520;2023-07-08T01:07:27;100369.25;;;26.60;31.47
28428;BME280;15662;49.128;8.520;2023-07-08T01:10:06;100373.97;;;26.58;31.63
28428;BME280;15662;49.128;8.520;2023-07-08T01:12:48;100375.56;;;26.51;31.16
28428;BME280;15662;49.128;8.520;2023-07-08T01:15:22;100377.28;;;26.52;30.79
28428;BME280;15662;49.128;8.520;2023-07-08T01:17:53;100352.22;;;26.48;30.79
28428;BME280;15662;49.128;8.520;2023-07-08T01:20:22;100358.25;;;26.52;30.53
28428;BME280;15662;49.128;8.520;2023-07-08T01:22:50;100362.25;;;26.57;30.51
28428;BME280;15662;49.128;8.520;2023-07-08T01:25:18;100356.81;;;26.57;30.53
28428;BME280;15662;49.128;8.520;2023-07-08T01:27:49;100362.84;;;26.61;30.33
28428;BME280;15662;49.128;8.520;2023-07-08T01:30:20;100355.09;;;26.56;30.14
28428;BME280;15662;49.128;8.520;2023-07-08T01:32:57;100361.97;;;26.60;30.38
28428;BME280;15662;49.128;8.520;2023-07-08T01:35:27;100353.25;;;26.57;30.12
28428;BME280;15662;49.128;8.520;2023-07-08T01:37:59;100350.69;;;26.55;30.18
28428;BME280;15662;49.128;8.520;2023-07-08T01:40:32;100351.81;;;26.53;30.22
28428;BME280;15662;49.128;8.520;2023-07-08T01:43:03;100351.97;;;26.51;30.00
28428;BME280;15662;49.128;8.520;2023-07-08T01:45:39;100349.38;;;26.49;30.18
28428;BME280;15662;49.128;8.520;2023-07-08T01:48:11;100357.81;;;26.46;30.33
28428;BME280;15662;49.128;8.520;2023-07-08T01:53:28;100351.06;;;26.41;30.09
28428;BME280;15662;49.128;8.520;2023-07-08T01:55:56;100355.19;;;26.35;30.22
28428;BME280;15662;49.128;8.520;2023-07-08T01:58:26;100345.47;;;26.33;30.41
28428;BME280;15662;49.128;8.520;2023-07-08T02:00:54;100339.59;;;26.28;30.18
28428;BME280;15662;49.128;8.520;2023-07-08T02:03:23;100337.03;;;26.26;30.42
28428;BME280;15662;49.128;8.520;2023-07-08T02:05:51;100336.44;;;26.22;30.16
28428;BME280;15662;49.128;8.520;2023-07-08T02:08:20;100341.72;;;26.24;30.38
28428;BME280;15662;49.128;8.520;2023-07-08T02:10:58;100339.31;;;26.21;30.48
28428;BME280;15662;49.128;8.520;2023-07-08T02:13:27;100345.16;;;26.16;30.70
28428;BME280;15662;49.128;8.520;2023-07-08T02:15:54;100351.03;;;26.12;30.76
28428;BME280;15662;49.128;8.520;2023-07-08T02:18:23;100349.84;;;26.05;31.08
28428;BME280;15662;49.128;8.520;2023-07-08T02:20:53;100349.69;;;25.96;31.33
28428;BME280;15662;49.128;8.520;2023-07-08T02:23:20;100343.22;;;25.88;31.35
28428;BME280;15662;49.128;8.520;2023-07-08T02:25:55;100355.22;;;25.85;31.57
28428;BME280;15662;49.128;8.520;2023-07-08T02:28:24;100358.63;;;25.78;31.95
28428;BME280;15662;49.128;8.520;2023-07-08T02:30:51;100362.59;;;25.73;31.75
28428;BME280;15662;49.128;8.520;2023-07-08T02:33:19;100359.16;;;25.71;31.58
28428;BME280;15662;49.128;8.520;2023-07-08T02:35:47;100376.03;;;25.75;31.42
28428;BME280;15662;49.128;8.520;2023-07-08T02:38:15;100370.72;;;25.73;31.42
28428;BME280;15662;49.128;8.520;2023-07-08T02:40:43;100383.94;;;25.78;31.10
28428;BME280;15662;49.128;8.520;2023-07-08T02:43:11;100383.06;;;25.78;31.16
28428;BME280;15662;49.128;8.520;2023-07-08T02:45:39;100372.31;;;25.76;31.05
28428;BME280;15662;49.128;8.520;2023-07-08T02:48:08;100378.50;;;25.78;31.12
28428;BME280;15662;49.128;8.520;2023-07-08T02:50:36;100368.63;;;25.77;31.19
28428;BME280;15662;49.128;8.520;2023-07-08T02:53:03;100368.63;;;25.77;30.99
28428;BME280;15662;49.128;8.520;2023-07-08T02:55:31;100370.50;;;25.77;31.12
28428;BME280;15662;49.128;8.520;2023-07-08T02:57:59;100369.72;;;25.74;30.94
28428;BME280;15662;49.128;8.520;2023-07-08T03:00:27;100376.03;;;25.75;31.29
28428;BME280;15662;49.128;8.520;2023-07-08T03:02:55;100380.88;;;25.71;31.03
28428;BME280;15662;49.128;8.520;2023-07-08T03:05:23;100382.00;;;25.69;31.53
28428;BME280;15662;49.128;8.520;2023-07-08T03:07:51;100378.69;;;25.65;31.02
28428;BME280;15662;49.128;8.520;2023-07-08T03:10:19;100375.13;;;25.65;31.14
28428;BME280;15662;49.128;8.520;2023-07-08T03:12:47;100381.41;;;25.65;31.00
28428;BME280;15662;49.128;8.520;2023-07-08T03:15:14;100375.84;;;25.67;30.91
28428;BME280;15662;49.128;8.520;2023-07-08T03:17:42;100379.53;;;25.66;30.98
28428;BME280;15662;49.128;8.520;2023-07-08T03:20:11;100376.13;;;25.64;31.11
28428;BME280;15662;49.128;8.520;2023-07-08T03:22:39;100382.41;;;25.64;31.16
28428;BME280;15662;49.128;8.520;2023-07-08T03:25:07;100371.09;;;25.59;31.26
28428;BME280;15662;49.128;8.520;2023-07-08T03:27:36;100381.94;;;25.59;30.99
28428;BME280;15662;49.128;8.520;2023-07-08T03:30:07;100380.09;;;25.60;31.03
28428;BME280;15662;49.128;8.520;2023-07-08T03:32:35;100386.53;;;25.59;31.20
28428;BME280;15662;49.128;8.520;2023-07-08T03:35:04;100383.09;;;25.57;31.23
28428;BME280;15662;49.128;8.520;2023-07-08T03:37:32;100383.22;;;25.55;31.10
28428;BME280;15662;49.128;8.520;2023-07-08T03:39:59;100384.06;;;25.56;31.15
28428;BME280;15662;49.128;8.520;2023-07-08T03:42:27;100374.63;;;25.50;31.54
28428;BME280;15662;49.128;8.520;2023-07-08T03:44:55;100386.06;;;25.54;31.54
28428;BME280;15662;49.128;8.520;2023-07-08T03:47:25;100383.63;;;25.51;31.57
28428;BME280;15662;49.128;8.520;2023-07-08T03:49:53;100377.03;;;25.43;31.51
28428;BME280;15662;49.128;8.520;2023-07-08T03:52:21;100384.75;;;25.48;31.38
28428;BME280;15662;49.128;8.520;2023-07-08T03:54:49;100382.91;;;25.48;31.40
28428;BME280;15662;49.128;8.520;2023-07-08T03:57:18;100387.59;;;25.46;31.53
28428;BME280;15662;49.128;8.520;2023-07-08T03:59:47;100380.00;;;25.40;31.33
28428;BME280;15662;49.128;8.520;2023-07-08T04:02:15;100376.88;;;25.45;31.61
28428;BME280;15662;49.128;8.520;2023-07-08T04:04:44;100377.72;;;25.45;31.71
28428;BME280;15662;49.128;8.520;2023-07-08T04:07:12;100382.16;;;25.46;31.68
28428;BME280;15662;49.128;8.520;2023-07-08T04:09:40;100366.03;;;25.45;31.47
28428;BME280;15662;49.128;8.520;2023-07-08T04:12:11;100360.38;;;25.27;31.44
28428;BME280;15662;49.128;8.520;2023-07-08T04:14:39;100363.59;;;25.42;31.52
28428;BME280;15662;49.128;8.520;2023-07-08T04:17:11;100357.72;;;25.46;31.56
28428;BME280;15662;49.128;8.520;2023-07-08T04:19:39;100357.63;;;25.48;31.73
28428;BME280;15662;49.128;8.520;2023-07-08T04:22:08;100367.06;;;25.54;31.30
28428;BME280;15662;49.128;8.520;2023-07-08T04:24:37;100367.22;;;25.52;31.39
28428;BME280;15662;49.128;8.520;2023-07-08T04:27:05;100379.66;;;25.55;31.72
28428;BME280;15662;49.128;8.520;2023-07-08T04:29:33;100379.03;;;25.51;31.79
28428;BME280;15662;49.128;8.520;2023-07-08T04:32:02;100381.66;;;25.53;31.69
28428;BME280;15662;49.128;8.520;2023-07-08T04:34:31;100376.31;;;25.51;31.86
28428;BME280;15662;49.128;8.520;2023-07-08T04:36:58;100378.78;;;25.54;31.63
28428;BME280;15662;49.128;8.520;2023-07-08T04:39:27;100374.34;;;25.53;31.88
28428;BME280;15662;49.128;8.520;2023-07-08T04:41:55;100371.34;;;25.56;31.92
28428;BME280;15662;49.128;8.520;2023-07-08T04:44:23;100372.25;;;25.57;31.91
28428;BME280;15662;49.128;8.520;2023-07-08T04:46:55;100371.69;;;25.63;31.93
28428;BME280;15662;49.128;8.520;2023-07-08T04:49:24;100374.84;;;25.68;31.95
28428;BME280;15662;49.128;8.520;2023-07-08T04:51:52;100382.59;;;25.72;31.53
28428;BME280;15662;49.128;8.520;2023-07-08T04:54:20;100393.63;;;25.81;31.53
28428;BME280;15662;49.128;8.520;2023-07-08T04:56:48;100397.25;;;25.91;31.72
28428;BME280;15662;49.128;8.520;2023-07-08T04:59:20;100404.47;;;26.02;31.66
28428;BME280;15662;49.128;8.520;2023-07-08T05:01:49;100406.19;;;26.12;31.85
28428;BME280;15662;49.128;8.520;2023-07-08T05:04:19;100410.50;;;26.24;31.54
28428;BME280;15662;49.128;8.520;2023-07-08T05:06:48;100413.13;;;26.36;31.75
28428;BME280;15662;49.128;8.520;2023-07-08T05:09:16;100417.63;;;26.46;31.70
28428;BME280;15662;49.128;8.520;2023-07-08T05:11:44;100417.47;;;26.58;31.56
28428;BME280;15662;49.128;8.520;2023-07-08T05:14:13;100424.63;;;26.68;31.67
28428;BME280;15662;49.128;8.520;2023-07-08T05:16:41;100434.06;;;26.74;31.53
28428;BME280;15662;49.128;8.520;2023-07-08T05:19:09;100452.84;;;26.87;31.94
28428;BME280;15662;49.128;8.520;2023-07-08T05:21:38;100457.44;;;26.96;32.14
28428;BME280;15662;49.128;8.520;2023-07-08T05:24:06;100472.16;;;27.03;31.99
28428;BME280;15662;49.128;8.520;2023-07-08T05:26:34;100473.38;;;27.10;31.90
28428;BME280;15662;49.128;8.520;2023-07-08T05:29:02;100494.28;;;27.19;31.99
28428;BME280;15662;49.128;8.520;2023-07-08T05:31:30;100511.75;;;27.26;31.78
28428;BME280;15662;49.128;8.520;2023-07-08T05:34:15;100513.44;;;27.27;31.92
28428;BME280;15662;49.128;8.520;2023-07-08T05:36:43;100518.03;;;27.27;31.78
28428;BME280;15662;49.128;8.520;2023-07-08T05:39:11;100510.88;;;27.26;31.85
28428;BME280;15662;49.128;8.520;2023-07-08T05:41:39;100503.41;;;27.28;31.89
28428;BME280;15662;49.128;8.520;2023-07-08T05:44:07;100512.44;;;27.38;31.92
28428;BME280;15662;49.128;8.520;2023-07-08T05:46:35;100520.31;;;27.41;32.11
28428;BME280;15662;49.128;8.520;2023-07-08T05:49:03;100526.63;;;27.42;32.08
28428;BME280;15662;49.128;8.520;2023-07-08T05:51:30;100531.78;;;27.45;32.14
28428;BME280;15662;49.128;8.520;2023-07-08T05:53:58;100528.75;;;27.48;32.16
28428;BME280;15662;49.128;8.520;2023-07-08T05:56:26;100527.06;;;27.47;32.27
28428;BME280;15662;49.128;8.520;2023-07-08T05:58:54;100534.63;;;27.53;32.29
28428;BME280;15662;49.128;8.520;2023-07-08T06:01:22;100546.25;;;27.55;32.60
28428;BME280;15662;49.128;8.520;2023-07-08T06:03:50;100543.81;;;27.52;32.43
28428;BME280;15662;49.128;8.520;2023-07-08T06:06:18;100556.13;;;27.56;32.58
28428;BME280;15662;49.128;8.520;2023-07-08T06:08:46;100558.59;;;27.59;32.42
28428;BME280;15662;49.128;8.520;2023-07-08T06:11:14;100560.56;;;27.67;32.54
28428;BME280;15662;49.128;8.520;2023-07-08T06:13:42;100553.84;;;27.71;32.67
28428;BME280;15662;49.128;8.520;2023-07-08T06:16:09;100569.19;;;27.82;32.37
28428;BME280;15662;49.128;8.520;2023-07-08T06:18:37;100571.19;;;27.89;32.34
28428;BME280;15662;49.128;8.520;2023-07-08T06:21:05;100567.72;;;27.97;32.56
28428;BME280;15662;49.128;8.520;2023-07-08T06:23:33;100563.94;;;28.08;32.63
28428;BME280;15662;49.128;8.520;2023-07-08T06:26:01;100565.91;;;28.25;33.12
28428;BME280;15662;49.128;8.520;2023-07-08T06:28:29;100561.13;;;28.46;33.11
28428;BME280;15662;49.128;8.520;2023-07-08T06:30:57;100541.06;;;28.65;33.42
28428;BME280;15662;49.128;8.520;2023-07-08T06:33:25;100560.28;;;28.91;33.27
28428;BME280;15662;49.128;8.520;2023-07-08T06:35:53;100551.25;;;29.18;33.52
28428;BME280;15662;49.128;8.520;2023-07-08T06:38:21;100541.19;;;29.37;33.20
28428;BME280;15662;49.128;8.520;2023-07-08T06:40:49;100547.03;;;29.60;32.99
28428;BME280;15662;49.128;8.520;2023-07-08T06:43:17;100536.78;;;29.79;33.19
28428;BME280;15662;49.128;8.520;2023-07-08T06:45:50;100537.59;;;29.98;33.02
28428;BME280;15662;49.128;8.520;2023-07-08T06:48:19;100532.69;;;30.10;32.71
28428;BME280;15662;49.128;8.520;2023-07-08T06:50:48;100533.16;;;30.23;32.81
28428;BME280;15662;49.128;8.520;2023-07-08T06:53:16;100541.28;;;30.41;32.51
28428;BME280;15662;49.128;8.520;2023-07-08T06:55:45;100542.38;;;30.56;32.43
28428;BME280;15662;49.128;8.520;2023-07-08T06:58:13;100550.28;;;30.67;32.71
28428;BME280;15662;49.128;8.520;2023-07-08T07:00:44;100540.13;;;30.86;32.37
28428;BME280;15662;49.128;8.520;2023-07-08T07:03:13;100531.41;;;30.90;32.04
28428;BME280;15662;49.128;8.520;2023-07-08T07:05:42;100541.16;;;30.93;32.00
28428;BME280;15662;49.128;8.520;2023-07-08T07:08:10;100532.28;;;30.99;32.19
28428;BME280;15662;49.128;8.520;2023-07-08T07:10:38;100535.03;;;31.07;32.15
28428;BME280;15662;49.128;8.520;2023-07-08T07:13:06;100528.19;;;31.11;32.33
28428;BME280;15662;49.128;8.520;2023-07-08T07:15:34;100524.94;;;31.16;32.24
28428;BME280;15662;49.128;8.520;2023-07-08T07:18:02;100535.56;;;31.19;32.43
28428;BME280;15662;49.128;8.520;2023-07-08T07:20:30;100531.44;;;31.23;32.73
28428;BME280;15662;49.128;8.520;2023-07-08T07:22:58;100527.00;;;31.22;32.83
28428;BME280;15662;49.128;8.520;2023-07-08T07:25:26;100533.72;;;31.27;32.80
28428;BME280;15662;49.128;8.520;2023-07-08T07:27:53;100529.63;;;31.31;33.19
28428;BME280;15662;49.128;8.520;2023-07-08T07:30:21;100531.66;;;31.38;33.07
28428;BME280;15662;49.128;8.520;2023-07-08T07:32:49;100526.03;;;31.47;33.27
28428;BME280;15662;49.128;8.520;2023-07-08T07:35:17;100528.25;;;31.60;33.17
28428;BME280;15662;49.128;8.520;2023-07-08T07:37:45;100521.22;;;31.66;32.94
28428;BME280;15662;49.128;8.520;2023-07-08T07:40:13;100525.66;;;31.75;32.87
28428;BME280;15662;49.128;8.520;2023-07-08T07:42:45;100522.59;;;31.78;32.74
28428;BME280;15662;49.128;8.520;2023-07-08T07:45:14;100535.97;;;31.73;32.68
28428;BME280;15662;49.128;8.520;2023-07-08T07:47:42;100540.94;;;31.69;32.71
28428;BME280;15662;49.128;8.520;2023-07-08T07:50:10;100537.34;;;31.69;32.70
28428;BME280;15662;49.128;8.520;2023-07-08T07:52:38;100541.59;;;31.71;33.17
28428;BME280;15662;49.128;8.520;2023-07-08T07:55:07;100531.66;;;31.70;33.25
28428;BME280;15662;49.128;8.520;2023-07-08T07:57:35;100540.41;;;31.74;33.21
28428;BME280;15662;49.128;8.520;2023-07-08T08:00:03;100537.31;;;31.77;33.29
28428;BME280;15662;49.128;8.520;2023-07-08T08:02:41;100541.41;;;31.81;33.15
28428;BME280;15662;49.128;8.520;2023-07-08T08:05:09;100544.16;;;31.81;33.19
28428;BME280;15662;49.128;8.520;2023-07-08T08:07:37;100547.97;;;31.88;33.13
28428;BME280;15662;49.128;8.520;2023-07-08T08:10:05;100531.34;;;31.90;33.00
28428;BME280;15662;49.128;8.520;2023-07-08T08:12:33;100533.03;;;31.91;32.80
28428;BME280;15662;49.128;8.520;2023-07-08T08:15:21;100549.31;;;32.00;32.97
28428;BME280;15662;49.128;8.520;2023-07-08T08:17:50;100541.25;;;31.99;33.03
28428;BME280;15662;49.128;8.520;2023-07-08T08:20:22;100541.94;;;32.01;33.16
28428;BME280;15662;49.128;8.520;2023-07-08T08:22:51;100547.25;;;32.02;33.14
28428;BME280;15662;49.128;8.520;2023-07-08T08:25:21;100545.69;;;32.08;33.30
28428;BME280;15662;49.128;8.520;2023-07-08T08:27:49;100560.94;;;32.10;33.24
28428;BME280;15662;49.128;8.520;2023-07-08T08:30:18;100544.81;;;32.16;33.42
28428;BME280;15662;49.128;8.520;2023-07-08T08:32:46;100553.75;;;32.18;32.84
28428;BME280;15662;49.128;8.520;2023-07-08T08:35:14;100548.72;;;32.21;32.82
28428;BME280;15662;49.128;8.520;2023-07-08T08:37:42;100550.78;;;32.27;32.60
28428;BME280;15662;49.128;8.520;2023-07-08T08:40:15;100553.00;;;32.32;32.42
28428;BME280;15662;49.128;8.520;2023-07-08T08:43:02;100560.19;;;32.41;32.16
28428;BME280;15662;49.128;8.520;2023-07-08T08:46:05;100562.59;;;32.44;31.77
28428;BME280;15662;49.128;8.520;2023-07-08T08:48:43;100561.22;;;32.48;32.20
28428;BME280;15662;49.128;8.520;2023-07-08T08:51:16;100556.38;;;32.50;32.52
28428;BME280;15662;49.128;8.520;2023-07-08T08:53:45;100553.81;;;32.49;32.10
28428;BME280;15662;49.128;8.520;2023-07-08T08:59:03;100564.59;;;32.58;31.06
28428;BME280;15662;49.128;8.520;2023-07-08T09:01:34;100552.97;;;32.56;31.03
28428;BME280;15662;49.128;8.520;2023-07-08T09:04:34;100551.00;;;32.65;30.56
28428;BME280;15662;49.128;8.520;2023-07-08T09:07:20;100562.47;;;32.77;30.06
28428;BME280;15662;49.128;8.520;2023-07-08T09:12:32;100559.84;;;32.92;29.22
28428;BME280;15662;49.128;8.520;2023-07-08T09:15:13;100561.66;;;32.99;29.01
28428;BME280;15662;49.128;8.520;2023-07-08T09:17:41;100562.38;;;33.01;28.73
28428;BME280;15662;49.128;8.520;2023-07-08T09:23:21;100559.31;;;33.19;28.60
28428;BME280;15662;49.128;8.520;2023-07-08T09:26:05;100557.06;;;33.23;28.51
28428;BME280;15662;49.128;8.520;2023-07-08T09:28:44;100553.78;;;33.27;28.66
28428;BME280;15662;49.128;8.520;2023-07-08T09:31:23;100534.53;;;33.27;28.22
28428;BME280;15662;49.128;8.520;2023-07-08T09:34:04;100539.09;;;33.35;28.43
28428;BME280;15662;49.128;8.520;2023-07-08T09:36:32;100543.72;;;33.43;28.29
28428;BME280;15662;49.128;8.520;2023-07-08T09:39:01;100537.69;;;33.47;28.51
28428;BME280;15662;49.128;8.520;2023-07-08T09:41:35;100548.63;;;33.55;28.24
28428;BME280;15662;49.128;8.520;2023-07-08T09:44:27;100553.56;;;33.60;27.84
28428;BME280;15662;49.128;8.520;2023-07-08T09:46:58;100550.13;;;33.58;28.06
28428;BME280;15662;49.128;8.520;2023-07-08T09:49:32;100558.47;;;33.64;27.42
28428;BME280;15662;49.128;8.520;2023-07-08T09:52:02;100558.13;;;33.68;27.86
28428;BME280;15662;49.128;8.520;2023-07-08T09:54:30;100555.66;;;33.73;27.55
28428;BME280;15662;49.128;8.520;2023-07-08T09:57:29;100544.13;;;33.77;27.80
28428;BME280;15662;49.128;8.520;2023-07-08T10:00:07;100548.09;;;33.75;27.90
28428;BME280;15662;49.128;8.520;2023-07-08T10:07:51;100546.66;;;33.79;28.06
28428;BME280;15662;49.128;8.520;2023-07-08T10:10:36;100539.28;;;33.79;27.24
28428;BME280;15662;49.128;8.520;2023-07-08T10:13:22;100543.06;;;33.78;27.18
28428;BME280;15662;49.128;8.520;2023-07-08T10:16:23;100543.25;;;33.77;27.51
28428;BME280;15662;49.128;8.520;2023-07-08T10:18:48;100535.88;;;33.77;27.43
28428;BME280;15662;49.128;8.520;2023-07-08T10:41:15;100535.56;;;33.95;27.09
28428;BME280;15662;49.128;8.520;2023-07-08T10:43:53;100533.25;;;33.99;27.46
28428;BME280;15662;49.128;8.520;2023-07-08T10:46:33;100536.00;;;33.99;27.02
28428;BME280;15662;49.128;8.520;2023-07-08T10:49:39;100532.34;;;34.06;27.03
28428;BME280;15662;49.128;8.520;2023-07-08T10:52:46;100528.16;;;34.10;27.02
28428;BME280;15662;49.128;8.520;2023-07-08T11:01:48;100528.81;;;33.98;27.53
28428;BME280;15662;49.128;8.520;2023-07-08T11:07:53;100525.72;;;34.30;27.09
28428;BME280;15662;49.128;8.520;2023-07-08T11:10:34;100517.53;;;34.37;27.26
28428;BME280;15662;49.128;8.520;2023-07-08T11:13:14;100524.09;;;34.36;27.63
28428;BME280;15662;49.128;8.520;2023-07-08T11:16:13;100520.97;;;34.39;27.74
28428;BME280;15662;49.128;8.520;2023-07-08T11:18:57;100531.41;;;34.44;27.58
28428;BME280;15662;49.128;8.520;2023-07-08T11:21:37;100528.28;;;34.47;26.94
28428;BME280;15662;49.128;8.520;2023-07-08T11:24:40;100522.19;;;34.51;27.32
28428;BME280;15662;49.128;8.520;2023-07-08T11:27:38;100524.31;;;34.49;27.47
28428;BME280;15662;49.128;8.520;2023-07-08T11:30:16;100529.41;;;34.52;27.41
28428;BME280;15662;49.128;8.520;2023-07-08T11:32:46;100514.63;;;34.53;27.23
28428;BME280;15662;49.128;8.520;2023-07-08T11:38:20;100529.38;;;34.67;27.34
28428;BME280;15662;49.128;8.520;2023-07-08T11:41:04;100526.72;;;34.74;27.47
28428;BME280;15662;49.128;8.520;2023-07-08T11:43:53;100518.06;;;34.77;27.95
28428;BME280;15662;49.128;8.520;2023-07-08T11:46:27;100530.63;;;34.79;27.62
28428;BME280;15662;49.128;8.520;2023-07-08T11:49:13;100523.69;;;34.83;27.18
28428;BME280;15662;49.128;8.520;2023-07-08T11:51:44;100516.25;;;34.84;27.16
28428;BME280;15662;49.128;8.520;2023-07-08T11:54:20;100520.78;;;34.91;26.92
28428;BME280;15662;49.128;8.520;2023-07-08T11:56:58;100505.78;;;34.94;26.77
28428;BME280;15662;49.128;8.520;2023-07-08T11:59:36;100498.19;;;34.96;27.30
28428;BME280;15662;49.128;8.520;2023-07-08T12:02:25;100516.69;;;35.02;27.32
28428;BME280;15662;49.128;8.520;2023-07-08T12:05:12;100503.13;;;35.01;26.94
28428;BME280;15662;49.128;8.520;2023-07-08T12:07:47;100505.28;;;35.05;27.14
28428;BME280;15662;49.128;8.520;2023-07-08T12:10:33;100505.56;;;35.10;27.11
28428;BME280;15662;49.128;8.520;2023-07-08T12:13:03;100503.66;;;35.11;26.36
28428;BME280;15662;49.128;8.520;2023-07-08T12:15:32;100504.50;;;35.11;26.57
28428;BME280;15662;49.128;8.520;2023-07-08T12:18:16;100494.75;;;35.09;26.23
28428;BME280;15662;49.128;8.520;2023-07-08T12:21:13;100498.09;;;35.04;26.29
28428;BME280;15662;49.128;8.520;2023-07-08T12:23:46;100493.81;;;35.02;26.72
28428;BME280;15662;49.128;8.520;2023-07-08T12:26:15;100496.66;;;35.08;26.57
28428;BME280;15662;49.128;8.520;2023-07-08T12:28:43;100497.50;;;35.09;26.16
28428;BME280;15662;49.128;8.520;2023-07-08T12:31:18;100489.88;;;35.11;25.67
28428;BME280;15662;49.128;8.520;2023-07-08T12:33:46;100490.28;;;35.08;26.04
28428;BME280;15662;49.128;8.520;2023-07-08T12:36:21;100480.97;;;35.09;25.86
28428;BME280;15662;49.128;8.520;2023-07-08T12:38:55;100478.59;;;35.06;25.99
28428;BME280;15662;49.128;8.520;2023-07-08T12:41:29;100479.44;;;35.06;25.71
28428;BME280;15662;49.128;8.520;2023-07-08T12:43:57;100481.81;;;35.09;26.00
28428;BME280;15662;49.128;8.520;2023-07-08T12:46:27;100484.38;;;35.11;26.52
28428;BME280;15662;49.128;8.520;2023-07-08T12:48:55;100487.78;;;35.13;26.47
28428;BME280;15662;49.128;8.520;2023-07-08T12:51:27;100481.03;;;35.15;25.95
28428;BME280;15662;49.128;8.520;2023-07-08T12:53:57;100484.25;;;35.19;25.57
28428;BME280;15662;49.128;8.520;2023-07-08T12:56:25;100490.81;;;35.18;25.08
28428;BME280;15662;49.128;8.520;2023-07-08T12:58:56;100473.69;;;35.23;25.26
28428;BME280;15662;49.128;8.520;2023-07-08T13:01:29;100479.03;;;35.31;25.00
28428;BME280;15662;49.128;8.520;2023-07-08T13:04:06;100470.19;;;35.35;24.80
28428;BME280;15662;49.128;8.520;2023-07-08T13:06:38;100466.84;;;35.40;25.34
28428;BME280;15662;49.128;8.520;2023-07-08T13:09:42;100462.84;;;35.42;24.83
28428;BME280;15662;49.128;8.520;2023-07-08T13:12:19;100464.16;;;35.47;24.87
28428;BME280;15662;49.128;8.520;2023-07-08T13:14:55;100464.22;;;35.53;24.88
28428;BME280;15662;49.128;8.520;2023-07-08T13:17:26;100472.28;;;35.55;24.61
28428;BME280;15662;49.128;8.520;2023-07-08T13:19:55;100473.34;;;35.54;24.42
28428;BME280;15662;49.128;8.520;2023-07-08T13:22:24;100467.84;;;35.54;24.19
28428;BME280;15662;49.128;8.520;2023-07-08T13:25:01;100472.31;;;35.61;23.98
28428;BME280;15662;49.128;8.520;2023-07-08T13:27:29;100477.84;;;35.61;24.02
28428;BME280;15662;49.128;8.520;2023-07-08T13:30:20;100459.66;;;35.67;24.01
28428;BME280;15662;49.128;8.520;2023-07-08T13:32:56;100462.44;;;35.67;23.72
28428;BME280;15662;49.128;8.520;2023-07-08T13:35:36;100444.16;;;35.66;23.63
28428;BME280;15662;49.128;8.520;2023-07-08T13:38:04;100449.25;;;35.62;23.84
28428;BME280;15662;49.128;8.520;2023-07-08T13:40:32;100450.53;;;35.66;23.86
28428;BME280;15662;49.128;8.520;2023-07-08T13:43:01;100456.50;;;35.70;24.10
28428;BME280;15662;49.128;8.520;2023-07-08T13:45:32;100463.56;;;35.79;23.81
28428;BME280;15662;49.128;8.520;2023-07-08T13:48:46;100454.69;;;35.84;23.46
28428;BME280;15662;49.128;8.520;2023-07-08T13:51:16;100458.03;;;35.79;23.72
28428;BME280;15662;49.128;8.520;2023-07-08T13:53:50;100457.22;;;35.85;23.83
28428;BME280;15662;49.128;8.520;2023-07-08T13:56:33;100456.44;;;35.91;23.88
28428;BME280;15662;49.128;8.520;2023-07-08T13:59:05;100450.91;;;35.91;24.10
28428;BME280;15662;49.128;8.520;2023-07-08T14:01:38;100454.59;;;35.99;23.96
28428;BME280;15662;49.128;8.520;2023-07-08T14:04:07;100445.69;;;35.97;23.76
28428;BME280;15662;49.128;8.520;2023-07-08T14:06:39;100446.53;;;35.97;23.74
28428;BME280;15662;49.128;8.520;2023-07-08T14:11:40;100442.94;;;35.97;23.32
28428;BME280;15662;49.128;8.520;2023-07-08T14:14:09;100443.94;;;35.96;23.33
28428;BME280;15662;49.128;8.520;2023-07-08T14:16:44;100441.41;;;35.94;23.71
28428;BME280;15662;49.128;8.520;2023-07-08T14:19:21;100432.47;;;35.92;23.44